createdAt,value
2022-08-04T00:00:44.840Z,50.64
2022-08-04T00:03:14.757Z,50.79
2022-08-04T00:05:54.158Z,50.47
2022-08-04T00:08:21.299Z,50.60
2022-08-04T00:10:55.204Z,50.54
2022-08-04T00:13:23.425Z,50.46
2022-08-04T00:15:52.363Z,50.53
2022-08-04T00:18:22.996Z,50.41
2022-08-04T00:20:53.250Z,50.49
2022-08-04T00:23:22.305Z,50.62
2022-08-04T00:25:49.733Z,50.80
2022-08-04T00:28:17.123Z,51.14
2022-08-04T00:30:45.409Z,51.44
2022-08-04T00:33:13.714Z,51.27
2022-08-04T00:35:40.985Z,51.22
2022-08-04T00:38:08.598Z,51.48
2022-08-04T00:40:44.965Z,51.79
2022-08-04T00:43:21.529Z,52.02
2022-08-04T00:46:15.297Z,51.97
2022-08-04T00:48:44.153Z,52.40
2022-08-04T00:51:29.563Z,52.10
2022-08-04T00:54:19.378Z,52.08
2022-08-04T00:56:46.551Z,52.39
2022-08-04T00:59:32.219Z,52.35
2022-08-04T01:01:59.482Z,52.49
2022-08-04T01:04:40.732Z,52.94
2022-08-04T01:07:07.969Z,53.14
2022-08-04T01:09:50.189Z,53.19
2022-08-04T01:12:26.205Z,53.39
2022-08-04T01:15:05.854Z,53.60
2022-08-04T01:17:36.074Z,53.26
2022-08-04T01:20:08.633Z,53.18
2022-08-04T01:22:47.946Z,53.04
2022-08-04T01:25:34.002Z,53.26
2022-08-04T01:28:14.693Z,53.23
2022-08-04T01:30:46.125Z,53.52
2022-08-04T01:33:14.364Z,53.13
2022-08-04T01:35:48.478Z,53.28
2022-08-04T01:38:21.799Z,53.76
2022-08-04T01:40:53.007Z,53.59
2022-08-04T01:43:20.496Z,53.95
2022-08-04T01:45:51.748Z,53.78
2022-08-04T01:48:24.069Z,54.22
2022-08-04T01:50:56.936Z,54.21
2022-08-04T01:53:30.131Z,54.28
2022-08-04T01:55:57.763Z,54.75
2022-08-04T01:58:25.636Z,54.82
2022-08-04T02:00:57.770Z,54.56
2022-08-04T02:04:21.553Z,54.78
2022-08-04T02:06:31.711Z,55.00
2022-08-04T02:09:05.752Z,54.92
2022-08-04T02:11:32.914Z,54.62
2022-08-04T02:14:03.227Z,54.25
2022-08-04T02:16:52.749Z,54.23
2022-08-04T02:19:23.300Z,54.48
2022-08-04T02:21:55.748Z,54.34
2022-08-04T02:24:26.481Z,54.17
2022-08-04T02:26:54.093Z,54.14
2022-08-04T02:29:27.287Z,53.90
2022-08-04T02:32:04.773Z,54.06
2022-08-04T02:34:53.073Z,54.29
2022-08-04T02:37:20.919Z,54.69
2022-08-04T02:39:50.171Z,54.67
2022-08-04T02:42:17.597Z,54.35
2022-08-04T02:44:51.381Z,54.52
2022-08-04T02:47:20.597Z,54.77
2022-08-04T02:49:50.575Z,55.03
2022-08-04T02:52:21.538Z,54.88
2022-08-04T02:54:51.219Z,55.08
2022-08-04T02:57:19.071Z,54.74
2022-08-04T02:59:46.370Z,54.60
2022-08-04T03:02:15.266Z,54.93
2022-08-04T03:04:57.709Z,52.01
2022-08-04T03:07:43.312Z,51.01
2022-08-04T03:10:17.867Z,50.58
2022-08-04T03:13:05.238Z,50.37
2022-08-04T03:15:32.416Z,50.35
2022-08-04T03:18:18.196Z,50.49
2022-08-04T03:21:03.925Z,51.00
2022-08-04T03:23:33.763Z,51.12
2022-08-04T03:26:19.756Z,51.09
2022-08-04T03:28:49.944Z,51.20
2022-08-04T03:31:35.554Z,50.93
2022-08-04T03:34:26.700Z,51.10
2022-08-04T03:37:03.196Z,51.90
2022-08-04T03:39:58.820Z,51.93
2022-08-04T03:42:52.521Z,51.89
2022-08-04T03:45:42.987Z,52.71
2022-08-04T03:48:16.220Z,53.00
2022-08-04T03:51:35.124Z,52.94
2022-08-04T03:54:10.251Z,52.67
2022-08-04T03:56:55.375Z,51.55
2022-08-04T03:59:31.771Z,51.05
2022-08-04T04:02:02.450Z,50.93
2022-08-04T04:04:58.311Z,51.96
2022-08-04T04:07:40.459Z,52.80
2022-08-04T04:10:09.868Z,53.47
2022-08-04T04:12:46.287Z,53.32
2022-08-04T04:15:31.624Z,54.08
2022-08-04T04:18:16.440Z,55.21
2022-08-04T04:20:54.739Z,55.31
2022-08-04T04:23:25.012Z,55.56
2022-08-04T04:25:58.340Z,55.49
2022-08-04T04:28:45.621Z,56.07
2022-08-04T04:31:16.583Z,56.05
2022-08-04T04:33:54.215Z,55.83
2022-08-04T04:36:36.554Z,55.48
2022-08-04T04:39:06.502Z,55.32
2022-08-04T04:41:48.039Z,55.29
2022-08-04T04:44:15.725Z,55.50
2022-08-04T04:46:56.017Z,55.66
2022-08-04T04:49:31.345Z,55.65
2022-08-04T04:52:03.719Z,55.69
2022-08-04T04:54:37.080Z,55.54
2022-08-04T04:57:13.583Z,55.56
2022-08-04T04:59:47.640Z,55.31
2022-08-04T05:02:20.827Z,55.10
2022-08-04T05:05:02.981Z,55.21
2022-08-04T05:07:57.625Z,55.18
2022-08-04T05:10:48.675Z,55.46
2022-08-04T05:14:38.767Z,54.82
2022-08-04T05:16:26.216Z,54.65
2022-08-04T05:19:12.408Z,55.04
2022-08-04T05:21:47.131Z,54.37
2022-08-04T05:24:16.829Z,53.90
2022-08-04T05:26:45.911Z,53.68
2022-08-04T05:29:33.287Z,53.60
2022-08-04T05:32:04.959Z,53.46
2022-08-04T05:34:35.653Z,53.12
2022-08-04T05:37:08.088Z,52.68
2022-08-04T05:39:47.280Z,52.24
2022-08-04T05:42:15.417Z,52.17
2022-08-04T05:44:46.379Z,51.78
2022-08-04T05:47:16.523Z,51.32
2022-08-04T05:49:44.819Z,51.04
2022-08-04T05:52:12.561Z,49.64
2022-08-04T05:54:40.317Z,48.49
2022-08-04T05:57:08.617Z,49.44
2022-08-04T05:59:37.790Z,49.45
2022-08-04T06:02:05.897Z,49.41
2022-08-04T06:04:38.681Z,49.09
2022-08-04T06:07:06.374Z,48.56
2022-08-04T06:09:33.611Z,48.94
2022-08-04T06:12:04.372Z,48.84
2022-08-04T06:14:40.678Z,49.23
2022-08-04T06:18:33.713Z,49.17
2022-08-04T06:20:17.804Z,48.75
2022-08-04T06:22:46.458Z,48.62
2022-08-04T06:25:15.753Z,47.60
2022-08-04T06:27:43.328Z,47.26
2022-08-04T06:30:14.122Z,47.18
2022-08-04T06:32:49.827Z,46.91
2022-08-04T06:35:17.979Z,46.94
2022-08-04T06:37:48.823Z,46.02
2022-08-04T06:40:31.480Z,45.95
2022-08-04T06:43:07.201Z,45.83
2022-08-04T06:45:36.015Z,45.71
2022-08-04T06:48:05.115Z,45.94
2022-08-04T06:51:24.985Z,45.20
2022-08-04T06:53:21.949Z,44.44
2022-08-04T06:55:49.393Z,44.29
2022-08-04T06:58:17.168Z,44.28
2022-08-04T07:00:45.848Z,43.95
2022-08-04T07:03:13.675Z,43.95
2022-08-04T07:05:41.085Z,43.32
2022-08-04T07:08:10.392Z,43.58
2022-08-04T07:10:38.308Z,43.84
2022-08-04T07:13:07.301Z,44.53
2022-08-04T07:15:35.835Z,45.19
2022-08-04T07:18:04.814Z,44.99
2022-08-04T07:20:34.807Z,44.83
2022-08-04T07:23:07.117Z,44.72
2022-08-04T07:26:00.991Z,45.06
2022-08-04T07:28:24.259Z,45.22
2022-08-04T07:30:52.649Z,44.94
2022-08-04T07:33:20.181Z,44.63
2022-08-04T07:36:10.646Z,44.13
2022-08-04T07:38:37.640Z,44.07
2022-08-04T07:41:35.664Z,44.06
2022-08-04T07:44:03.467Z,43.52
2022-08-04T07:46:31.268Z,43.34
2022-08-04T07:49:01.845Z,43.19
2022-08-04T07:51:30.651Z,42.76
2022-08-04T07:53:58.505Z,42.72
2022-08-04T07:56:28.955Z,41.43
2022-08-04T07:58:56.294Z,41.54
2022-08-04T08:01:24.480Z,40.97
2022-08-04T08:03:53.044Z,40.65
2022-08-04T08:06:32.804Z,40.08
2022-08-04T08:09:13.419Z,40.91
2022-08-04T08:12:37.423Z,40.52
2022-08-04T08:14:34.978Z,40.35
2022-08-04T08:17:03.249Z,39.89
2022-08-04T08:19:40.978Z,40.10
2022-08-04T08:22:08.271Z,39.71
2022-08-04T08:24:36.133Z,39.09
2022-08-04T08:27:07.347Z,38.54
2022-08-04T08:29:35.242Z,38.49
2022-08-04T08:32:08.056Z,38.25
2022-08-04T08:34:37.269Z,38.30
2022-08-04T08:37:04.537Z,36.90
2022-08-04T08:39:39.148Z,36.68
2022-08-04T08:42:25.221Z,36.26
2022-08-04T08:45:12.689Z,36.29
2022-08-04T08:48:06.322Z,36.05
2022-08-04T08:50:43.088Z,35.50
2022-08-04T08:53:22.875Z,35.96
2022-08-04T08:56:02.498Z,36.07
2022-08-04T08:58:44.269Z,35.62
2022-08-04T09:01:21.118Z,35.77
2022-08-04T09:04:07.258Z,35.50
2022-08-04T09:06:53.258Z,34.98
2022-08-04T09:09:39.157Z,34.24
2022-08-04T09:12:06.439Z,33.81
2022-08-04T09:14:40.149Z,32.95
2022-08-04T09:17:19.021Z,32.57
2022-08-04T09:19:51.530Z,32.23
2022-08-04T09:22:25.090Z,31.87
2022-08-04T09:25:15.537Z,31.76
2022-08-04T09:27:58.557Z,29.73
2022-08-04T09:30:46.682Z,28.83
2022-08-04T09:33:17.164Z,29.81
2022-08-04T09:35:59.710Z,30.02
2022-08-04T09:38:30.872Z,30.04
2022-08-04T09:41:36.538Z,29.14
2022-08-04T09:44:52.419Z,28.77
2022-08-04T09:46:53.609Z,28.72
2022-08-04T09:49:26.929Z,27.72
2022-08-04T09:52:01.180Z,28.53
2022-08-04T09:54:30.515Z,29.24
2022-08-04T09:57:07.136Z,29.53
2022-08-04T09:59:41.164Z,29.81
2022-08-04T10:02:10.540Z,29.06
2022-08-04T10:04:39.613Z,29.84
2022-08-04T10:07:18.385Z,30.05
2022-08-04T10:09:48.877Z,30.60
2022-08-04T10:12:23.910Z,30.81
2022-08-04T10:15:06.501Z,30.38
2022-08-04T10:17:39.743Z,29.81
2022-08-04T10:20:45.710Z,30.14
2022-08-04T10:23:32.935Z,30.68
2022-08-04T10:26:23.300Z,30.67
2022-08-04T10:28:53.568Z,30.63
2022-08-04T10:31:24.662Z,31.01
2022-08-04T10:33:54.679Z,31.47
2022-08-04T10:36:24.259Z,31.71
2022-08-04T10:38:57.828Z,32.12
2022-08-04T10:41:43.463Z,31.98
2022-08-04T10:44:28.704Z,31.82
2022-08-04T10:47:20.875Z,31.33
2022-08-04T10:49:54.873Z,31.00
2022-08-04T10:52:31.468Z,30.83
2022-08-04T10:55:01.791Z,29.18
2022-08-04T10:57:31.999Z,29.72
2022-08-04T11:00:10.453Z,29.81
2022-08-04T11:02:41.942Z,29.32
2022-08-04T11:05:21.892Z,28.93
2022-08-04T11:07:59.815Z,29.42
2022-08-04T11:10:31.444Z,28.79
2022-08-04T11:13:01.957Z,29.17
2022-08-04T11:15:34.538Z,29.52
2022-08-04T11:18:16.698Z,29.75
2022-08-04T11:21:07.457Z,29.89
2022-08-04T11:23:36.684Z,30.16
2022-08-04T11:26:13.221Z,30.22
2022-08-04T11:28:46.485Z,30.44
2022-08-04T11:31:39.965Z,30.56
2022-08-04T11:34:10.089Z,30.48
2022-08-04T11:37:13.892Z,30.30
2022-08-04T11:39:41.845Z,30.33
2022-08-04T11:42:14.972Z,31.25
2022-08-04T11:44:49.924Z,30.31
2022-08-04T11:47:26.400Z,30.22
2022-08-04T11:50:00.819Z,30.55
2022-08-04T11:52:28.636Z,29.67
2022-08-04T11:54:57.136Z,29.27
2022-08-04T11:57:25.837Z,29.43
2022-08-04T12:00:12.629Z,30.10
2022-08-04T12:02:52.202Z,30.17
2022-08-04T12:05:35.332Z,30.06
2022-08-04T12:08:12.922Z,29.41
2022-08-04T12:10:42.152Z,29.14
2022-08-04T12:13:24.652Z,29.14
2022-08-04T12:16:03.653Z,29.77
2022-08-04T12:18:34.761Z,29.94
2022-08-04T12:21:05.273Z,29.63
2022-08-04T12:23:36.754Z,30.11
2022-08-04T12:26:06.498Z,29.42
2022-08-04T12:28:59.662Z,29.33
2022-08-04T12:31:26.157Z,30.08
2022-08-04T12:34:04.879Z,30.20
2022-08-04T12:36:55.864Z,30.16
2022-08-04T12:39:25.784Z,30.05
2022-08-04T12:42:01.106Z,30.37
2022-08-04T12:44:37.813Z,30.49
2022-08-04T12:47:36.198Z,30.25
2022-08-04T12:50:03.696Z,29.80
2022-08-04T12:55:22.612Z,29.61
2022-08-04T12:57:50.890Z,29.91
2022-08-04T13:00:29.574Z,30.12
2022-08-04T13:03:04.505Z,30.34
2022-08-04T13:05:32.743Z,30.04
2022-08-04T13:08:01.219Z,30.46
2022-08-04T13:10:30.386Z,29.81
2022-08-04T13:13:00.931Z,29.97
2022-08-04T13:15:28.564Z,30.45
2022-08-04T13:17:59.128Z,30.24
2022-08-04T13:20:30.989Z,30.02
2022-08-04T13:23:08.968Z,30.03
2022-08-04T13:26:43.168Z,31.12
2022-08-04T13:28:34.417Z,31.05
2022-08-04T13:31:03.096Z,30.76
2022-08-04T13:33:32.486Z,30.54
2022-08-04T13:36:00.097Z,30.26
2022-08-04T13:38:28.216Z,30.35
2022-08-04T13:41:01.015Z,30.41
2022-08-04T13:43:50.022Z,30.03
2022-08-04T13:46:27.151Z,29.78
2022-08-04T13:49:24.904Z,30.19
2022-08-04T13:51:57.749Z,30.00
2022-08-04T13:54:30.674Z,30.10
2022-08-04T13:57:00.613Z,29.74
2022-08-04T13:59:33.460Z,29.98
2022-08-04T14:02:04.657Z,29.67
2022-08-04T14:04:34.582Z,29.18
2022-08-04T14:07:01.855Z,29.13
2022-08-04T14:09:35.349Z,28.96
2022-08-04T14:12:38.992Z,29.63
2022-08-04T14:14:56.093Z,29.97
2022-08-04T14:17:29.932Z,29.81
2022-08-04T14:19:59.977Z,29.89
2022-08-04T14:22:27.223Z,30.06
2022-08-04T14:24:58.569Z,30.25
2022-08-04T14:27:28.505Z,30.39
2022-08-04T14:29:55.770Z,29.46
2022-08-04T14:32:26.069Z,29.44
2022-08-04T14:34:53.700Z,28.97
2022-08-04T14:37:22.632Z,29.49
2022-08-04T14:40:19.293Z,30.23
2022-08-04T14:42:43.955Z,30.22
2022-08-04T14:45:12.170Z,29.78
2022-08-04T14:47:39.653Z,29.84
2022-08-04T14:50:07.808Z,30.01
2022-08-04T14:52:37.622Z,29.83
2022-08-04T14:55:17.864Z,29.45
2022-08-04T14:58:35.900Z,29.63
2022-08-04T15:00:34.964Z,29.71
2022-08-04T15:03:04.336Z,29.95
2022-08-04T15:06:02.098Z,29.98
2022-08-04T15:08:21.234Z,29.69
2022-08-04T15:10:48.539Z,29.71
2022-08-04T15:13:16.055Z,30.25
2022-08-04T15:15:43.667Z,30.35
2022-08-04T15:18:31.233Z,30.63
2022-08-04T15:21:02.248Z,30.89
2022-08-04T15:23:31.782Z,30.64
2022-08-04T15:26:08.338Z,30.32
2022-08-04T15:28:37.695Z,30.97
2022-08-04T15:31:10.686Z,30.93
2022-08-04T15:33:54.556Z,31.15
2022-08-04T15:36:34.731Z,30.37
2022-08-04T15:39:01.940Z,29.62
2022-08-04T15:41:36.459Z,30.01
2022-08-04T15:44:15.549Z,30.15
2022-08-04T15:46:47.676Z,29.70
2022-08-04T15:49:18.832Z,29.10
2022-08-04T15:51:46.485Z,29.20
2022-08-04T15:54:16.981Z,28.37
2022-08-04T15:57:02.618Z,28.21
2022-08-04T15:59:53.739Z,27.86
2022-08-04T16:02:37.739Z,28.63
2022-08-04T16:05:18.250Z,28.57
2022-08-04T16:07:59.967Z,28.75
2022-08-04T16:10:37.222Z,28.26
2022-08-04T16:13:06.514Z,28.27
2022-08-04T16:15:36.733Z,28.26
2022-08-04T16:18:04.158Z,28.34
2022-08-04T16:20:34.287Z,28.00
2022-08-04T16:23:10.842Z,28.28
2022-08-04T16:25:51.953Z,27.75
2022-08-04T16:28:38.561Z,26.22
2022-08-04T16:31:06.514Z,25.94
2022-08-04T16:33:43.845Z,26.32
2022-08-04T16:36:12.600Z,26.17
2022-08-04T16:38:58.686Z,26.28
2022-08-04T16:41:46.902Z,26.24
2022-08-04T16:44:52.221Z,26.32
2022-08-04T16:47:40.399Z,26.52
2022-08-04T16:50:08.482Z,26.81
2022-08-04T16:52:41.911Z,27.18
2022-08-04T16:55:09.315Z,26.82
2022-08-04T16:57:38.889Z,26.77
2022-08-04T17:00:07.429Z,27.29
2022-08-04T17:02:35.839Z,27.05
2022-08-04T17:05:07.812Z,27.09
2022-08-04T17:08:27.305Z,27.12
2022-08-04T17:10:44.186Z,27.24
2022-08-04T17:14:03.273Z,26.90
2022-08-04T17:16:13.789Z,26.94
2022-08-04T17:18:49.775Z,26.95
2022-08-04T17:21:19.938Z,27.11
2022-08-04T17:24:16.039Z,26.87
2022-08-04T17:26:39.907Z,27.08
2022-08-04T17:29:08.249Z,26.93
2022-08-04T17:31:37.788Z,26.89
2022-08-04T17:34:16.586Z,27.34
2022-08-04T17:36:47.481Z,27.63
2022-08-04T17:39:17.718Z,27.94
2022-08-04T17:41:48.629Z,27.98
2022-08-04T17:44:16.668Z,28.11
2022-08-04T17:46:48.190Z,28.42
2022-08-04T17:49:19.097Z,28.43
2022-08-04T17:52:05.454Z,28.31
2022-08-04T17:54:37.254Z,28.56
2022-08-04T17:57:22.733Z,28.45
2022-08-04T17:59:57.935Z,28.53
2022-08-04T18:02:33.235Z,28.72
2022-08-04T18:05:11.711Z,28.94
2022-08-04T18:08:39.153Z,28.76
2022-08-04T18:10:51.910Z,28.17
2022-08-04T18:13:27.811Z,28.45
2022-08-04T18:16:05.177Z,28.62
2022-08-04T18:18:33.141Z,28.46
2022-08-04T18:21:03.195Z,28.95
2022-08-04T18:23:33.122Z,29.10
2022-08-04T18:26:01.755Z,28.90
2022-08-04T18:28:33.214Z,29.06
2022-08-04T18:31:02.129Z,29.33
2022-08-04T18:33:40.174Z,29.17
2022-08-04T18:36:33.426Z,29.19
2022-08-04T18:38:59.221Z,29.12
2022-08-04T18:42:01.770Z,28.52
2022-08-04T18:44:29.011Z,28.65
2022-08-04T18:46:56.900Z,28.71
2022-08-04T18:50:58.918Z,29.05
2022-08-04T18:54:58.865Z,28.85
2022-08-04T18:57:58.660Z,29.05
2022-08-04T19:00:19.839Z,28.72
2022-08-04T19:02:47.691Z,29.63
2022-08-04T19:05:17.586Z,29.62
2022-08-04T19:08:02.135Z,30.09
2022-08-04T19:10:34.771Z,29.54
2022-08-04T19:13:02.084Z,29.42
2022-08-04T19:15:33.952Z,29.63
2022-08-04T19:18:02.451Z,29.63
2022-08-04T19:20:39.467Z,29.56
2022-08-04T19:24:27.623Z,29.91
2022-08-04T19:26:03.846Z,29.77
2022-08-04T19:28:34.851Z,29.95
2022-08-04T19:31:07.422Z,30.37
2022-08-04T19:33:55.910Z,31.85
2022-08-04T19:36:27.807Z,32.92
2022-08-04T19:38:57.810Z,33.28
2022-08-04T19:41:26.434Z,33.81
2022-08-04T19:43:54.695Z,33.94
2022-08-04T19:46:25.025Z,33.99
2022-08-04T19:48:59.371Z,34.46
2022-08-04T19:51:28.962Z,34.75
2022-08-04T19:54:02.740Z,34.56
2022-08-04T19:56:40.172Z,35.26
2022-08-04T19:59:11.063Z,35.16
2022-08-04T20:01:44.184Z,35.28
2022-08-04T20:04:13.719Z,35.59
2022-08-04T20:06:41.452Z,35.80
2022-08-04T20:09:25.309Z,35.84
2022-08-04T20:11:54.546Z,35.80
2022-08-04T20:14:31.202Z,35.63
2022-08-04T20:17:10.490Z,35.71
2022-08-04T20:19:38.887Z,35.56
2022-08-04T20:25:00.860Z,35.45
2022-08-04T20:27:59.475Z,35.60
2022-08-04T20:30:28.328Z,35.33
2022-08-04T20:32:55.952Z,35.27
2022-08-04T20:35:26.690Z,35.16
2022-08-04T20:38:00.418Z,35.14
2022-08-04T20:40:29.823Z,35.07
2022-08-04T20:42:59.884Z,35.22
2022-08-04T20:48:14.576Z,35.02
2022-08-04T20:50:43.924Z,35.29
2022-08-04T20:53:16.257Z,35.41
2022-08-04T20:55:55.027Z,35.22
2022-08-04T20:58:27.601Z,35.34
2022-08-04T21:00:55.875Z,35.62
2022-08-04T21:03:49.501Z,35.69
2022-08-04T21:06:11.516Z,35.58
2022-08-04T21:08:38.655Z,35.67
2022-08-04T21:11:06.886Z,35.57
2022-08-04T21:13:50.633Z,35.79
2022-08-04T21:16:53.863Z,35.66
2022-08-04T21:19:13.176Z,36.02
2022-08-04T21:21:41.227Z,36.04
2022-08-04T21:24:09.576Z,35.90
2022-08-04T21:26:37.453Z,36.02
2022-08-04T21:29:04.883Z,35.89
2022-08-04T21:31:36.780Z,35.93
2022-08-04T21:34:38.031Z,35.93
2022-08-04T21:37:05.215Z,35.89
2022-08-04T21:39:32.891Z,36.05
2022-08-04T21:42:29.848Z,36.14
2022-08-04T21:44:58.109Z,36.09
2022-08-04T21:47:25.472Z,35.79
2022-08-04T21:49:56.852Z,35.93
2022-08-04T21:52:25.010Z,35.49
2022-08-04T21:54:54.598Z,35.70
2022-08-04T21:57:25.136Z,35.79
2022-08-04T21:59:52.751Z,35.73
2022-08-04T22:02:19.948Z,35.66
2022-08-04T22:04:48.869Z,36.14
2022-08-04T22:07:16.958Z,36.36
2022-08-04T22:10:00.076Z,36.72
2022-08-04T22:12:30.167Z,36.97
2022-08-04T22:14:59.392Z,36.87
2022-08-04T22:17:35.000Z,36.99
2022-08-04T22:20:03.364Z,37.09
2022-08-04T22:22:33.406Z,37.03
2022-08-04T22:28:00.889Z,37.41
2022-08-04T22:30:36.355Z,37.21
2022-08-04T22:33:05.463Z,37.55
2022-08-04T22:35:44.398Z,37.49
2022-08-04T22:38:25.429Z,37.16
2022-08-04T22:40:57.643Z,36.98
2022-08-04T22:43:33.664Z,36.83
2022-08-04T22:46:12.257Z,37.17
2022-08-04T22:48:43.579Z,37.37
2022-08-04T22:51:12.732Z,37.93
2022-08-04T22:53:40.672Z,37.50
2022-08-04T22:56:10.518Z,37.47
2022-08-04T22:58:40.152Z,37.96
2022-08-04T23:01:08.578Z,37.97
2022-08-04T23:03:37.424Z,38.50
2022-08-04T23:06:06.396Z,38.31
2022-08-04T23:08:34.280Z,38.64
2022-08-04T23:11:07.255Z,38.67
2022-08-04T23:13:34.391Z,38.51
2022-08-04T23:16:06.508Z,38.56
2022-08-04T23:18:41.893Z,38.57
2022-08-04T23:21:47.908Z,38.71
2022-08-04T23:24:30.055Z,38.77
2022-08-04T23:26:57.836Z,39.16
2022-08-04T23:29:25.397Z,39.11
2022-08-04T23:31:59.452Z,39.30
2022-08-04T23:34:29.257Z,39.76
2022-08-04T23:36:56.859Z,40.21
2022-08-04T23:40:03.982Z,40.13
2022-08-04T23:42:15.071Z,40.28
2022-08-04T23:44:48.301Z,40.34
2022-08-04T23:47:15.590Z,40.46
2022-08-04T23:50:02.913Z,41.05
2022-08-04T23:52:31.045Z,41.26
2022-08-04T23:54:59.246Z,41.31
2022-08-04T23:58:02.293Z,41.70
